createdAt,value
2023-01-13T00:00:28.017Z,100391.44
2023-01-13T00:02:56.236Z,100408.41
2023-01-13T00:05:25.657Z,100409.69
2023-01-13T00:07:53.664Z,100410.75
2023-01-13T00:10:22.733Z,100401.84
2023-01-13T00:12:51.387Z,100400.44
2023-01-13T00:15:19.153Z,100409.34
2023-01-13T00:17:47.917Z,100410.63
2023-01-13T00:20:16.211Z,100408.75
2023-01-13T00:22:43.978Z,100408.19
2023-01-13T00:25:11.932Z,100397.41
2023-01-13T00:27:40.992Z,100386.09
2023-01-13T00:30:10.007Z,100384.44
2023-01-13T00:32:37.703Z,100379.53
2023-01-13T00:35:06.211Z,100379.53
2023-01-13T00:37:36.783Z,100373.09
2023-01-13T00:40:04.709Z,100369.59
2023-01-13T00:42:49.691Z,100358.84
2023-01-13T00:45:18.760Z,100356.16
2023-01-13T00:47:46.472Z,100346.47
2023-01-13T00:50:14.150Z,100344.81
2023-01-13T00:52:42.353Z,100342.94
2023-01-13T00:55:10.457Z,100350.19
2023-01-13T00:57:39.412Z,100347.50
2023-01-13T01:00:08.128Z,100342.38
2023-01-13T01:02:37.191Z,100353.13
2023-01-13T01:05:05.183Z,100358.75
2023-01-13T01:07:32.845Z,100347.63
2023-01-13T01:10:00.540Z,100343.66
2023-01-13T01:12:28.198Z,100358.16
2023-01-13T01:14:55.902Z,100361.91
2023-01-13T01:17:23.837Z,100361.91
2023-01-13T01:19:52.835Z,100373.69
2023-01-13T01:22:20.510Z,100365.88
2023-01-13T01:24:48.812Z,100363.66
2023-01-13T01:27:16.516Z,100352.91
2023-01-13T01:29:44.229Z,100355.81
2023-01-13T01:32:11.926Z,100370.91
2023-01-13T01:34:40.002Z,100373.00
2023-01-13T01:37:09.040Z,100371.13
2023-01-13T01:39:36.736Z,100364.13
2023-01-13T01:42:22.337Z,100364.13
2023-01-13T01:45:00.642Z,100364.94
2023-01-13T01:47:29.515Z,100367.03
2023-01-13T01:49:59.419Z,100372.66
2023-01-13T01:52:33.325Z,100368.56
2023-01-13T01:55:04.801Z,100366.34
2023-01-13T01:57:37.264Z,100370.91
2023-01-13T02:00:06.848Z,100376.28
2023-01-13T02:02:34.779Z,100373.84
2023-01-13T02:05:03.121Z,100379.44
2023-01-13T02:07:34.500Z,100378.63
2023-01-13T02:10:06.117Z,100368.09
2023-01-13T02:12:34.687Z,100369.97
2023-01-13T02:15:06.242Z,100368.34
2023-01-13T02:18:09.581Z,100364.84
2023-01-13T02:20:53.202Z,100361.34
2023-01-13T02:24:13.732Z,100350.56
2023-01-13T02:27:04.509Z,100347.53
2023-01-13T02:30:08.405Z,100359.94
2023-01-13T02:32:45.833Z,100366.34
2023-01-13T02:35:20.366Z,100365.78
2023-01-13T02:37:49.665Z,100371.38
2023-01-13T02:40:24.943Z,100382.94
2023-01-13T02:43:16.840Z,100376.75
2023-01-13T02:45:52.450Z,100374.06
2023-01-13T02:48:23.951Z,100372.44
2023-01-13T02:50:56.840Z,100362.72
2023-01-13T02:53:31.711Z,100361.09
2023-01-13T02:56:01.211Z,100363.19
2023-01-13T02:58:30.625Z,100351.63
2023-01-13T03:00:59.995Z,100348.13
2023-01-13T03:03:27.804Z,100351.03
2023-01-13T03:06:02.746Z,100345.91
2023-01-13T03:08:47.791Z,100348.38
2023-01-13T03:11:17.104Z,100333.28
2023-01-13T03:14:09.334Z,100340.31
2023-01-13T03:17:02.597Z,100335.97
2023-01-13T03:19:38.607Z,100334.09
2023-01-13T03:22:19.063Z,100342.41
2023-01-13T03:24:54.272Z,100360.38
2023-01-13T03:27:27.462Z,100337.84
2023-01-13T03:29:58.995Z,100331.66
2023-01-13T03:32:31.778Z,100331.66
2023-01-13T03:35:05.523Z,100340.53
2023-01-13T03:37:38.763Z,100348.59
2023-01-13T03:40:12.182Z,100354.19
2023-01-13T03:43:03.051Z,100351.97
2023-01-13T03:45:32.963Z,100357.94
2023-01-13T03:48:06.427Z,100347.19
2023-01-13T03:50:39.839Z,100350.94
2023-01-13T03:53:13.232Z,100334.97
2023-01-13T03:55:44.250Z,100343.34
2023-01-13T03:58:16.286Z,100349.75
2023-01-13T04:00:51.882Z,100350.03
2023-01-13T04:03:24.138Z,100351.88
2023-01-13T04:05:58.709Z,100342.19
2023-01-13T04:08:28.821Z,100343.25
2023-01-13T04:11:03.549Z,100344.06
2023-01-13T04:13:36.280Z,100350.72
2023-01-13T04:16:07.808Z,100354.22
2023-01-13T04:18:39.414Z,100339.75
2023-01-13T04:21:08.464Z,100347.56
2023-01-13T04:23:36.215Z,100362.28
2023-01-13T04:26:04.416Z,100349.66
2023-01-13T04:28:33.524Z,100342.91
2023-01-13T04:31:01.299Z,100333.19
2023-01-13T04:33:29.233Z,100345.34
2023-01-13T04:35:58.306Z,100342.91
2023-01-13T04:38:26.005Z,100340.44
2023-01-13T04:40:53.726Z,100347.91
2023-01-13T04:43:21.444Z,100350.59
2023-01-13T04:45:49.192Z,100350.00
2023-01-13T04:48:16.910Z,100352.69
2023-01-13T04:50:44.862Z,100361.56
2023-01-13T04:53:14.039Z,100368.00
2023-01-13T04:55:41.785Z,100366.94
2023-01-13T04:58:11.379Z,100343.81
2023-01-13T05:00:39.477Z,100352.09
2023-01-13T05:03:07.409Z,100344.88
2023-01-13T05:05:35.449Z,100348.59
2023-01-13T05:08:03.215Z,100351.28
2023-01-13T05:10:32.255Z,100350.47
2023-01-13T05:13:17.732Z,100339.97
2023-01-13T05:16:17.697Z,100352.81
2023-01-13T05:18:45.746Z,100344.97
2023-01-13T05:21:27.356Z,100337.75
2023-01-13T05:24:12.652Z,100335.50
2023-01-13T05:26:41.763Z,100337.94
2023-01-13T05:29:09.480Z,100338.75
2023-01-13T05:31:37.160Z,100354.28
2023-01-13T05:34:04.909Z,100350.78
2023-01-13T05:36:32.583Z,100354.28
2023-01-13T05:39:00.254Z,100351.84
2023-01-13T05:41:45.632Z,100358.25
2023-01-13T05:44:14.645Z,100353.94
2023-01-13T05:46:42.434Z,100359.31
2023-01-13T05:49:10.153Z,100363.03
2023-01-13T05:51:37.861Z,100358.47
2023-01-13T05:54:05.603Z,100364.91
2023-01-13T05:56:33.657Z,100357.91
2023-01-13T05:59:01.362Z,100369.44
2023-01-13T06:01:30.423Z,100361.63
2023-01-13T06:03:58.139Z,100365.38
2023-01-13T06:06:25.828Z,100359.41
2023-01-13T06:08:53.575Z,100368.28
2023-01-13T06:11:21.312Z,100363.72
2023-01-13T06:13:49.037Z,100373.41
2023-01-13T06:16:16.757Z,100376.91
2023-01-13T06:18:45.862Z,100383.34
2023-01-13T06:21:13.604Z,100385.19
2023-01-13T06:23:41.311Z,100399.44
2023-01-13T06:26:14.695Z,100381.22
2023-01-13T06:28:42.449Z,100398.63
2023-01-13T06:31:11.426Z,100408.78
2023-01-13T06:33:42.414Z,100403.63
2023-01-13T06:36:18.280Z,100411.91
2023-01-13T06:38:51.075Z,100428.03
2023-01-13T06:41:39.846Z,100416.47
2023-01-13T06:44:07.009Z,100437.34
2023-01-13T06:46:35.600Z,100428.47
2023-01-13T06:49:03.401Z,100416.09
2023-01-13T06:51:32.431Z,100418.78
2023-01-13T06:54:00.196Z,100420.44
2023-01-13T06:56:27.899Z,100416.94
2023-01-13T06:58:55.607Z,100419.63
2023-01-13T07:01:23.466Z,100411.78
2023-01-13T07:03:51.563Z,100417.16
2023-01-13T07:06:19.326Z,100425.22
2023-01-13T07:08:48.378Z,100426.25
2023-01-13T07:11:16.175Z,100430.56
2023-01-13T07:14:01.273Z,100429.53
2023-01-13T07:16:29.034Z,100424.38
2023-01-13T07:18:58.071Z,100429.41
2023-01-13T07:21:25.757Z,100442.44
2023-01-13T07:23:54.839Z,100446.78
2023-01-13T07:26:22.589Z,100445.38
2023-01-13T07:28:50.277Z,100443.50
2023-01-13T07:31:20.860Z,100447.91
2023-01-13T07:33:49.093Z,100441.50
2023-01-13T07:36:16.926Z,100443.94
2023-01-13T07:38:45.324Z,100456.09
2023-01-13T07:41:33.401Z,100453.19
2023-01-13T07:44:04.895Z,100462.06
2023-01-13T07:46:32.804Z,100463.09
2023-01-13T07:49:00.737Z,100461.25
2023-01-13T07:51:28.491Z,100462.28
2023-01-13T07:53:56.242Z,100463.34
2023-01-13T07:56:25.349Z,100457.97
2023-01-13T07:58:53.309Z,100469.81
2023-01-13T08:01:21.377Z,100449.56
2023-01-13T08:03:49.190Z,100448.69
2023-01-13T08:06:17.011Z,100458.97
2023-01-13T08:08:44.718Z,100465.78
2023-01-13T08:11:12.500Z,100474.22
2023-01-13T08:13:41.603Z,100473.66
2023-01-13T08:16:11.727Z,100476.44
2023-01-13T08:18:39.653Z,100485.94
2023-01-13T08:21:09.967Z,100485.00
2023-01-13T08:23:38.384Z,100476.34
2023-01-13T08:26:08.007Z,100483.34
2023-01-13T08:28:35.977Z,100493.50
2023-01-13T08:31:07.347Z,100491.13
2023-01-13T08:33:35.674Z,100483.66
2023-01-13T08:36:05.046Z,100477.78
2023-01-13T08:38:34.432Z,100494.50
2023-01-13T08:41:02.808Z,100479.53
2023-01-13T08:43:30.601Z,100481.84
2023-01-13T08:45:59.739Z,100481.63
2023-01-13T08:48:31.674Z,100487.66
2023-01-13T08:51:03.996Z,100484.63
2023-01-13T08:53:31.903Z,100494.75
2023-01-13T08:55:59.677Z,100500.13
2023-01-13T08:58:27.595Z,100494.59
2023-01-13T09:00:55.432Z,100493.19
2023-01-13T09:03:23.188Z,100487.47
2023-01-13T09:05:52.332Z,100499.47
2023-01-13T09:08:20.346Z,100510.44
2023-01-13T09:10:48.438Z,100508.19
2023-01-13T09:13:15.708Z,100500.38
2023-01-13T09:15:46.187Z,100488.81
2023-01-13T09:18:14.455Z,100490.69
2023-01-13T09:20:42.134Z,100492.78
2023-01-13T09:23:11.638Z,100495.16
2023-01-13T09:25:40.097Z,100484.88
2023-01-13T09:28:08.522Z,100512.91
2023-01-13T09:30:38.250Z,100513.56
2023-01-13T09:33:23.563Z,100527.00
2023-01-13T09:35:51.299Z,100533.19
2023-01-13T09:38:20.818Z,100547.66
2023-01-13T09:40:50.655Z,100554.88
2023-01-13T09:43:42.389Z,100540.88
2023-01-13T09:46:31.920Z,100538.84
2023-01-13T09:49:00.275Z,100546.25
2023-01-13T09:51:35.209Z,100551.59
2023-01-13T09:54:12.218Z,100545.03
2023-01-13T09:56:39.935Z,100557.66
2023-01-13T09:59:11.524Z,100553.31
2023-01-13T10:01:46.982Z,100556.47
2023-01-13T10:04:16.276Z,100556.47
2023-01-13T10:06:48.559Z,100560.56
2023-01-13T10:09:27.604Z,100557.06
2023-01-13T10:12:18.236Z,100560.78
2023-01-13T10:14:53.649Z,100553.56
2023-01-13T10:17:29.493Z,100551.25
2023-01-13T10:20:04.027Z,100566.28
2023-01-13T10:22:45.761Z,100563.03
2023-01-13T10:25:25.833Z,100561.97
2023-01-13T10:27:55.739Z,100573.97
2023-01-13T10:30:31.114Z,100575.41
2023-01-13T10:33:01.147Z,100572.50
2023-01-13T10:35:51.817Z,100577.03
2023-01-13T10:38:21.770Z,100598.50
2023-01-13T10:40:52.508Z,100587.19
2023-01-13T10:43:20.361Z,100589.25
2023-01-13T10:45:56.846Z,100598.34
2023-01-13T10:48:24.598Z,100599.63
2023-01-13T10:50:52.377Z,100606.41
2023-01-13T10:53:24.329Z,100619.00
2023-01-13T10:56:06.245Z,100626.03
2023-01-13T10:58:33.982Z,100610.38
2023-01-13T11:01:04.053Z,100618.63
2023-01-13T11:03:41.283Z,100623.63
2023-01-13T11:06:10.475Z,100622.00
2023-01-13T11:08:45.206Z,100618.25
2023-01-13T11:11:43.030Z,100614.53
2023-01-13T11:14:36.907Z,100615.34
2023-01-13T11:17:12.853Z,100605.66
2023-01-13T11:19:43.708Z,100619.91
2023-01-13T11:22:18.092Z,100612.66
2023-01-13T11:24:51.136Z,100637.66
2023-01-13T11:27:26.007Z,100619.91
2023-01-13T11:30:09.581Z,100627.72
2023-01-13T11:32:41.876Z,100628.56
2023-01-13T11:35:18.628Z,100633.69
2023-01-13T11:37:49.335Z,100628.56
2023-01-13T11:40:22.522Z,100644.66
2023-01-13T11:42:56.997Z,100645.47
2023-01-13T11:45:32.337Z,100641.97
2023-01-13T11:48:02.624Z,100645.47
2023-01-13T11:50:35.400Z,100653.53
2023-01-13T11:53:16.318Z,100641.97
2023-01-13T11:55:56.014Z,100648.16
2023-01-13T11:58:53.428Z,100642.34
2023-01-13T12:01:36.391Z,100651.44
2023-01-13T12:04:20.252Z,100655.34
2023-01-13T12:06:53.468Z,100662.56
2023-01-13T12:09:45.061Z,100666.50
2023-01-13T12:12:27.609Z,100681.56
2023-01-13T12:15:46.285Z,100680.53
2023-01-13T12:18:30.322Z,100693.94
2023-01-13T12:21:10.122Z,100684.25
2023-01-13T12:23:43.504Z,100687.75
2023-01-13T12:26:14.069Z,100682.16
2023-01-13T12:28:49.000Z,100683.00
2023-01-13T12:31:19.859Z,100687.53
2023-01-13T12:34:06.861Z,100686.94
2023-01-13T12:36:48.534Z,100691.94
2023-01-13T12:39:27.748Z,100698.34
2023-01-13T12:42:18.295Z,100703.72
2023-01-13T12:45:09.329Z,100698.13
2023-01-13T12:47:43.458Z,100703.25
2023-01-13T12:50:40.874Z,100715.25
2023-01-13T12:53:32.728Z,100705.50
2023-01-13T12:56:36.356Z,100714.59
2023-01-13T12:59:33.460Z,100726.81
2023-01-13T13:02:26.896Z,100726.81
2023-01-13T13:04:57.526Z,100724.97
2023-01-13T13:07:38.125Z,100733.84
2023-01-13T13:10:17.327Z,100738.16
2023-01-13T13:13:17.636Z,100739.81
2023-01-13T13:15:46.765Z,100732.19
2023-01-13T13:18:27.455Z,100742.94
2023-01-13T13:21:04.450Z,100741.88
2023-01-13T13:24:03.006Z,100757.16
2023-01-13T13:26:48.444Z,100760.28
2023-01-13T13:29:41.131Z,100767.75
2023-01-13T13:32:31.093Z,100763.41
2023-01-13T13:35:15.427Z,100760.69
2023-01-13T13:38:13.595Z,100779.75
2023-01-13T13:41:01.229Z,100775.41
2023-01-13T13:43:48.610Z,100787.81
2023-01-13T13:46:41.730Z,100786.56
2023-01-13T13:49:09.535Z,100795.22
2023-01-13T13:51:42.644Z,100816.72
2023-01-13T13:54:15.170Z,100809.75
2023-01-13T13:56:46.217Z,100811.91
2023-01-13T13:59:18.111Z,100821.31
2023-01-13T14:01:47.063Z,100818.34
2023-01-13T14:04:19.806Z,100831.22
2023-01-13T14:06:52.508Z,100864.94
2023-01-13T14:09:23.918Z,100842.22
2023-01-13T14:12:00.830Z,100854.22
2023-01-13T14:14:28.888Z,100858.38
2023-01-13T14:16:57.324Z,100850.53
2023-01-13T14:19:34.212Z,100849.56
2023-01-13T14:22:03.137Z,100853.50
2023-01-13T14:24:33.098Z,100852.66
2023-01-13T14:27:11.506Z,100855.56
2023-01-13T14:29:39.485Z,100854.97
2023-01-13T14:32:08.325Z,100870.03
2023-01-13T14:34:37.930Z,100878.91
2023-01-13T14:37:24.796Z,100876.78
2023-01-13T14:39:53.872Z,100890.47
2023-01-13T14:42:22.206Z,100891.50
2023-01-13T14:44:51.688Z,100887.41
2023-01-13T14:47:23.680Z,100894.81
2023-01-13T14:49:58.922Z,100893.81
2023-01-13T14:52:28.459Z,100887.63
2023-01-13T14:55:23.041Z,100901.03
2023-01-13T14:57:51.007Z,100916.09
2023-01-13T15:00:24.648Z,100920.88
2023-01-13T15:03:07.232Z,100922.72
2023-01-13T15:05:49.270Z,100923.34
2023-01-13T15:08:34.661Z,100923.34
2023-01-13T15:11:06.443Z,100937.59
2023-01-13T15:13:39.628Z,100946.06
2023-01-13T15:16:16.189Z,100961.13
2023-01-13T15:18:44.015Z,100959.50
2023-01-13T15:21:11.971Z,100978.91
2023-01-13T15:23:41.149Z,100972.28
2023-01-13T15:26:20.002Z,100990.22
2023-01-13T15:28:48.612Z,100988.13
2023-01-13T15:31:16.692Z,100990.59
2023-01-13T15:33:44.823Z,100988.53
2023-01-13T15:36:25.678Z,100993.69
2023-01-13T15:38:53.688Z,100993.91
2023-01-13T15:41:36.993Z,101002.56
2023-01-13T15:44:22.574Z,100996.97
2023-01-13T15:46:51.910Z,101005.84
2023-01-13T15:49:25.992Z,101003.38
2023-01-13T15:51:53.815Z,101005.22
2023-01-13T15:54:24.444Z,101005.63
2023-01-13T15:56:54.517Z,101011.00
2023-01-13T15:59:24.678Z,101013.69
2023-01-13T16:01:52.415Z,101017.00
2023-01-13T16:04:20.143Z,101026.22
2023-01-13T16:06:48.253Z,101024.25
2023-01-13T16:09:16.871Z,101029.72
2023-01-13T16:11:44.884Z,101027.31
2023-01-13T16:14:13.953Z,101030.50
2023-01-13T16:16:41.811Z,101028.28
2023-01-13T16:19:11.676Z,101031.53
2023-01-13T16:21:40.458Z,101032.78
2023-01-13T16:24:08.253Z,101034.50
2023-01-13T16:26:37.601Z,101045.38
2023-01-13T16:29:05.958Z,101050.41
2023-01-13T16:31:35.667Z,101054.63
2023-01-13T16:34:04.648Z,101065.22
2023-01-13T16:36:35.582Z,101058.22
2023-01-13T16:39:04.229Z,101064.09
2023-01-13T16:41:31.929Z,101065.56
2023-01-13T16:44:05.895Z,101075.91
2023-01-13T16:46:35.247Z,101071.16
2023-01-13T16:49:05.363Z,101064.78
2023-01-13T16:51:33.605Z,101073.13
2023-01-13T16:54:01.336Z,101076.44
2023-01-13T16:56:30.971Z,101096.72
2023-01-13T16:59:00.070Z,101103.13
2023-01-13T17:01:30.645Z,101100.03
2023-01-13T17:04:01.050Z,101109.13
2023-01-13T17:06:33.072Z,101098.41
2023-01-13T17:09:06.316Z,101100.25
2023-01-13T17:11:34.152Z,101113.69
2023-01-13T17:14:18.356Z,101119.28
2023-01-13T17:16:47.420Z,101117.59
2023-01-13T17:19:17.069Z,101111.81
2023-01-13T17:21:44.889Z,101126.91
2023-01-13T17:24:12.585Z,101125.25
2023-01-13T17:26:44.002Z,101119.25
2023-01-13T17:29:15.184Z,101121.34
2023-01-13T17:31:43.150Z,101120.09
2023-01-13T17:34:12.906Z,101126.09
2023-01-13T17:36:43.432Z,101135.19
2023-01-13T17:39:16.753Z,101136.22
2023-01-13T17:41:44.736Z,101147.16
2023-01-13T17:44:14.440Z,101159.97
2023-01-13T17:46:42.261Z,101152.34
2023-01-13T17:49:11.914Z,101155.03
2023-01-13T17:51:39.748Z,101164.13
2023-01-13T17:54:12.450Z,101164.13
2023-01-13T17:56:40.864Z,101169.50
2023-01-13T17:59:10.315Z,101156.72
2023-01-13T18:01:39.078Z,101169.91
2023-01-13T18:04:07.551Z,101177.75
2023-01-13T18:06:35.414Z,101179.00
2023-01-13T18:09:03.214Z,101182.72
2023-01-13T18:11:32.261Z,101177.34
2023-01-13T18:14:00.277Z,101180.03
2023-01-13T18:16:30.361Z,101172.19
2023-01-13T18:19:19.191Z,101180.66
2023-01-13T18:22:05.290Z,101175.91
2023-01-13T18:24:50.831Z,101186.88
2023-01-13T18:27:23.622Z,101184.38
2023-01-13T18:29:54.249Z,101196.78
2023-01-13T18:32:24.154Z,101195.13
2023-01-13T18:35:01.608Z,101187.06
2023-01-13T18:37:35.982Z,101193.69
2023-01-13T18:40:04.402Z,101206.28
2023-01-13T18:42:50.940Z,101204.63
2023-01-13T18:45:19.432Z,101205.47
2023-01-13T18:47:47.179Z,101207.09
2023-01-13T18:50:15.064Z,101222.16
2023-01-13T18:52:42.846Z,101220.31
2023-01-13T18:55:11.426Z,101230.13
2023-01-13T18:57:41.041Z,101228.03
2023-01-13T19:00:10.201Z,101230.03
2023-01-13T19:02:38.077Z,101232.66
2023-01-13T19:05:06.632Z,101236.38
2023-01-13T19:07:35.756Z,101247.78
2023-01-13T19:10:04.323Z,101260.00
2023-01-13T19:12:33.750Z,101254.69
2023-01-13T19:15:03.744Z,101268.78
2023-01-13T19:17:34.318Z,101286.19
2023-01-13T19:20:02.321Z,101285.38
2023-01-13T19:22:32.733Z,101286.41
2023-01-13T19:25:01.767Z,101276.47
2023-01-13T19:27:30.121Z,101285.16
2023-01-13T19:30:00.264Z,101283.09
2023-01-13T19:32:30.927Z,101277.94
2023-01-13T19:34:59.808Z,101273.81
2023-01-13T19:37:30.291Z,101278.75
2023-01-13T19:39:59.078Z,101285.16
2023-01-13T19:42:44.295Z,101304.56
2023-01-13T19:45:31.518Z,101305.81
2023-01-13T19:48:04.724Z,101307.88
2023-01-13T19:50:32.692Z,101304.78
2023-01-13T19:53:00.462Z,101306.44
2023-01-13T19:55:28.169Z,101296.09
2023-01-13T19:57:55.878Z,101300.44
2023-01-13T20:00:23.820Z,101296.09
2023-01-13T20:02:53.258Z,101293.00
2023-01-13T20:05:25.967Z,101303.75
2023-01-13T20:07:53.994Z,101312.84
2023-01-13T20:10:23.463Z,101320.88
2023-01-13T20:12:51.274Z,101330.59
2023-01-13T20:15:18.972Z,101324.59
2023-01-13T20:17:46.690Z,101321.09
2023-01-13T20:20:15.750Z,101323.97
2023-01-13T20:22:44.886Z,101330.38
2023-01-13T20:25:16.524Z,101323.56
2023-01-13T20:27:44.814Z,101329.75
2023-01-13T20:30:14.320Z,101329.13
2023-01-13T20:32:42.431Z,101326.25
2023-01-13T20:35:11.266Z,101333.47
2023-01-13T20:37:39.592Z,101336.34
2023-01-13T20:40:11.766Z,101339.03
2023-01-13T20:42:44.856Z,101343.59
2023-01-13T20:45:17.093Z,101342.13
2023-01-13T20:47:46.153Z,101341.31
2023-01-13T20:50:14.582Z,101344.00
2023-01-13T20:52:42.377Z,101344.19
2023-01-13T20:55:12.285Z,101352.03
2023-01-13T20:57:40.546Z,101349.97
2023-01-13T21:00:10.180Z,101366.50
2023-01-13T21:02:40.679Z,101358.63
2023-01-13T21:05:08.696Z,101352.66
2023-01-13T21:07:36.417Z,101349.13
2023-01-13T21:10:04.669Z,101355.75
2023-01-13T21:12:51.392Z,101367.31
2023-01-13T21:15:20.185Z,101368.13
2023-01-13T21:18:07.267Z,101374.31
2023-01-13T21:20:36.198Z,101380.72
2023-01-13T21:23:04.832Z,101391.25
2023-01-13T21:25:35.445Z,101396.81
2023-01-13T21:28:07.216Z,101396.00
2023-01-13T21:30:35.543Z,101397.84
2023-01-13T21:33:04.171Z,101393.31
2023-01-13T21:35:32.185Z,101404.03
2023-01-13T21:37:59.937Z,101404.47
2023-01-13T21:40:27.686Z,101408.59
2023-01-13T21:43:13.119Z,101410.25
2023-01-13T21:45:59.894Z,101410.25
2023-01-13T21:48:27.646Z,101423.69
2023-01-13T21:50:55.374Z,101414.59
2023-01-13T21:53:23.120Z,101413.56
2023-01-13T21:55:52.301Z,101415.63
2023-01-13T21:58:20.090Z,101414.78
2023-01-13T22:00:49.797Z,101401.38
2023-01-13T22:03:18.625Z,101406.13
2023-01-13T22:05:46.494Z,101406.94
2023-01-13T22:08:14.731Z,101404.03
2023-01-13T22:10:57.140Z,101416.03
2023-01-13T22:13:43.129Z,101423.06
2023-01-13T22:16:12.430Z,101430.50
2023-01-13T22:18:40.167Z,101434.44
2023-01-13T22:21:07.897Z,101441.25
2023-01-13T22:23:35.607Z,101445.38
2023-01-13T22:26:03.746Z,101441.88
2023-01-13T22:28:34.259Z,101443.53
2023-01-13T22:31:02.493Z,101444.56
2023-01-13T22:33:31.530Z,101455.50
2023-01-13T22:35:59.254Z,101446.16
2023-01-13T22:38:26.982Z,101463.97
2023-01-13T22:40:58.922Z,101456.31
2023-01-13T22:43:28.175Z,101460.84
2023-01-13T22:45:59.647Z,101457.56
2023-01-13T22:48:27.622Z,101454.03
2023-01-13T22:50:57.337Z,101453.66
2023-01-13T22:53:25.099Z,101453.81
2023-01-13T22:55:56.395Z,101464.38
2023-01-13T22:58:25.060Z,101459.00
2023-01-13T23:00:53.081Z,101470.56
2023-01-13T23:03:20.845Z,101473.47
2023-01-13T23:05:48.655Z,101470.97
2023-01-13T23:08:17.747Z,101475.72
2023-01-13T23:10:45.457Z,101478.59
2023-01-13T23:13:13.141Z,101485.19
2023-01-13T23:15:40.887Z,101477.34
2023-01-13T23:18:08.573Z,101478.38
2023-01-13T23:20:36.805Z,101474.88
2023-01-13T23:23:04.609Z,101474.25
2023-01-13T23:25:33.672Z,101475.28
2023-01-13T23:28:01.415Z,101466.38
2023-01-13T23:30:29.203Z,101455.03
2023-01-13T23:32:56.878Z,101453.16
2023-01-13T23:35:25.015Z,101458.53
2023-01-13T23:37:52.700Z,101445.72
2023-01-13T23:40:20.446Z,101455.44
2023-01-13T23:42:49.510Z,101456.44
2023-01-13T23:45:17.270Z,101452.94
2023-01-13T23:47:45.011Z,101455.63
2023-01-13T23:50:12.817Z,101454.81
2023-01-13T23:52:40.531Z,101457.47
2023-01-13T23:55:08.943Z,101453.97
2023-01-13T23:57:36.777Z,101456.84
